sensor_id;sensor_type;location;lat;lon;timestamp;pressure;altitude;pressure_sealevel;temperature;humidity
62122;BME280;48108;47.532;19.084;2023-05-22T03:58:29;100310.06;;;15.08;100.00
62122;BME280;48108;47.532;19.084;2023-05-22T04:01:32;100315.31;;;15.30;100.00
62122;BME280;48108;47.532;19.084;2023-05-22T04:04:36;100313.38;;;15.43;100.00
62122;BME280;48108;47.532;19.084;2023-05-22T04:07:40;100315.44;;;15.55;100.00
62122;BME280;48108;47.532;19.084;2023-05-22T04:10:43;100313.78;;;15.60;100.00
62122;BME280;48108;47.532;19.084;2023-05-22T04:13:50;100311.91;;;15.74;100.00
62122;BME280;48108;47.532;19.084;2023-05-22T04:16:53;100313.09;;;15.85;100.00
62122;BME280;48108;47.532;19.084;2023-05-22T04:19:55;100315.97;;;15.97;100.00
62122;BME280;48108;47.532;19.084;2023-05-22T04:23:00;100313.41;;;16.08;100.00
62122;BME280;48108;47.532;19.084;2023-05-22T04:26:03;100305.84;;;16.17;100.00
62122;BME280;48108;47.532;19.084;2023-05-22T04:29:06;100311.06;;;16.25;100.00
62122;BME280;48108;47.532;19.084;2023-05-22T04:32:11;100304.53;;;16.33;100.00
62122;BME280;48108;47.532;19.084;2023-05-22T04:35:19;100307.87;;;16.35;100.00
62122;BME280;48108;47.532;19.084;2023-05-22T04:38:22;100309.72;;;16.41;100.00
62122;BME280;48108;47.532;19.084;2023-05-22T04:41:28;100310.25;;;16.57;100.00
62122;BME280;48108;47.532;19.084;2023-05-22T04:44:31;100316.03;;;16.67;100.00
62122;BME280;48108;47.532;19.084;2023-05-22T04:47:36;100309.94;;;16.78;100.00
62122;BME280;48108;47.532;19.084;2023-05-22T04:50:40;100305.09;;;16.80;100.00
62122;BME280;48108;47.532;19.084;2023-05-22T04:53:43;100310.28;;;16.88;100.00
62122;BME280;48108;47.532;19.084;2023-05-22T04:56:49;100316.28;;;16.97;100.00
62122;BME280;48108;47.532;19.084;2023-05-22T04:59:53;100312.44;;;17.05;99.71
62122;BME280;48108;47.532;19.084;2023-05-22T05:02:55;100307.56;;;17.13;97.66
62122;BME280;48108;47.532;19.084;2023-05-22T05:05:59;100311.37;;;17.31;97.84
62122;BME280;48108;47.532;19.084;2023-05-22T05:09:03;100308.09;;;17.47;95.43
62122;BME280;48108;47.532;19.084;2023-05-22T05:12:06;100310.44;;;17.62;92.69
62122;BME280;48108;47.532;19.084;2023-05-22T05:15:10;100321.41;;;17.74;92.28
62122;BME280;48108;47.532;19.084;2023-05-22T05:18:14;100328.91;;;17.78;90.06
62122;BME280;48108;47.532;19.084;2023-05-22T05:21:17;100331.84;;;17.77;90.66
62122;BME280;48108;47.532;19.084;2023-05-22T05:24:20;100326.59;;;17.82;89.11
62122;BME280;48108;47.532;19.084;2023-05-22T05:27:23;100327.34;;;17.89;87.66
62122;BME280;48108;47.532;19.084;2023-05-22T05:30:27;100333.31;;;17.98;90.74
62122;BME280;48108;47.532;19.084;2023-05-22T05:33:33;100338.75;;;17.98;89.20
62122;BME280;48108;47.532;19.084;2023-05-22T05:36:36;100339.38;;;18.00;89.05
62122;BME280;48108;47.532;19.084;2023-05-22T05:39:39;100337.56;;;17.94;91.83
62122;BME280;48108;47.532;19.084;2023-05-22T05:42:43;100340.88;;;17.96;90.25
62122;BME280;48108;47.532;19.084;2023-05-22T05:45:47;100347.00;;;18.09;86.41
62122;BME280;48108;47.532;19.084;2023-05-22T05:48:51;100343.75;;;18.19;87.60
62122;BME280;48108;47.532;19.084;2023-05-22T05:51:54;100340.19;;;18.37;87.89
62122;BME280;48108;47.532;19.084;2023-05-22T05:54:58;100344.75;;;18.55;86.98
62122;BME280;48108;47.532;19.084;2023-05-22T05:58:02;100341.81;;;18.68;86.58
62122;BME280;48108;47.532;19.084;2023-05-22T06:01:09;100339.63;;;18.77;83.68
62122;BME280;48108;47.532;19.084;2023-05-22T06:04:13;100345.59;;;18.86;81.82
62122;BME280;48108;47.532;19.084;2023-05-22T06:07:19;100353.09;;;18.90;80.90
62122;BME280;48108;47.532;19.084;2023-05-22T06:10:23;100343.13;;;18.96;81.40
62122;BME280;48108;47.532;19.084;2023-05-22T06:13:26;100352.75;;;18.98;79.62
62122;BME280;48108;47.532;19.084;2023-05-22T06:16:29;100341.66;;;18.82;80.12
62122;BME280;48108;47.532;19.084;2023-05-22T06:19:32;100348.78;;;18.83;81.08
62122;BME280;48108;47.532;19.084;2023-05-22T06:22:36;100345.37;;;18.87;79.37
62122;BME280;48108;47.532;19.084;2023-05-22T06:25:39;100345.72;;;18.91;79.23
62122;BME280;48108;47.532;19.084;2023-05-22T06:28:43;100347.97;;;18.94;81.05
62122;BME280;48108;47.532;19.084;2023-05-22T06:31:46;100346.34;;;19.05;79.36
62122;BME280;48108;47.532;19.084;2023-05-22T06:34:50;100342.56;;;19.06;78.11
62122;BME280;48108;47.532;19.084;2023-05-22T06:37:54;100346.25;;;19.23;78.82
62122;BME280;48108;47.532;19.084;2023-05-22T06:40:57;100335.94;;;19.37;77.16
62122;BME280;48108;47.532;19.084;2023-05-22T06:44:01;100343.09;;;19.73;75.23
62122;BME280;48108;47.532;19.084;2023-05-22T06:47:04;100342.13;;;20.31;69.32
62122;BME280;48108;47.532;19.084;2023-05-22T06:50:08;100340.75;;;20.57;65.02
62122;BME280;48108;47.532;19.084;2023-05-22T06:53:12;100344.72;;;20.95;66.16
62122;BME280;48108;47.532;19.084;2023-05-22T06:56:15;100345.56;;;21.29;62.61
62122;BME280;48108;47.532;19.084;2023-05-22T06:59:20;100346.78;;;21.56;62.38
62122;BME280;48108;47.532;19.084;2023-05-22T07:02:25;100342.63;;;21.70;61.85
62122;BME280;48108;47.532;19.084;2023-05-22T07:05:31;100339.88;;;21.70;64.82
62122;BME280;48108;47.532;19.084;2023-05-22T07:08:34;100340.16;;;21.68;64.81
62122;BME280;48108;47.532;19.084;2023-05-22T07:11:37;100341.78;;;21.69;63.25
62122;BME280;48108;47.532;19.084;2023-05-22T07:14:40;100348.84;;;22.04;63.48
62122;BME280;48108;47.532;19.084;2023-05-22T07:17:44;100339.50;;;22.44;61.73
62122;BME280;48108;47.532;19.084;2023-05-22T07:20:48;100344.03;;;22.60;61.12
62122;BME280;48108;47.532;19.084;2023-05-22T07:23:52;100344.59;;;22.84;51.67
62122;BME280;48108;47.532;19.084;2023-05-22T07:26:55;100336.94;;;22.92;49.36
62122;BME280;48108;47.532;19.084;2023-05-22T07:29:58;100344.59;;;22.90;49.37
62122;BME280;48108;47.532;19.084;2023-05-22T07:33:01;100349.69;;;22.49;49.90
62122;BME280;48108;47.532;19.084;2023-05-22T07:36:05;100346.38;;;22.47;50.75
62122;BME280;48108;47.532;19.084;2023-05-22T07:39:08;100338.22;;;22.30;50.46
62122;BME280;48108;47.532;19.084;2023-05-22T07:42:12;100341.41;;;22.22;51.63
62122;BME280;48108;47.532;19.084;2023-05-22T07:45:17;100332.72;;;21.86;51.21
62122;BME280;48108;47.532;19.084;2023-05-22T07:48:20;100328.59;;;21.66;52.55
62122;BME280;48108;47.532;19.084;2023-05-22T07:51:23;100330.44;;;21.61;53.27
62122;BME280;48108;47.532;19.084;2023-05-22T07:54:27;100337.34;;;21.46;53.43
62122;BME280;48108;47.532;19.084;2023-05-22T07:57:29;100340.62;;;21.82;53.03
62122;BME280;48108;47.532;19.084;2023-05-22T08:00:34;100338.56;;;22.16;52.61
62122;BME280;48108;47.532;19.084;2023-05-22T08:03:37;100334.31;;;22.04;51.01
62122;BME280;48108;47.532;19.084;2023-05-22T08:06:40;100342.16;;;22.17;52.74
62122;BME280;48108;47.532;19.084;2023-05-22T08:09:47;100336.56;;;22.29;50.36
62122;BME280;48108;47.532;19.084;2023-05-22T08:12:50;100340.91;;;22.25;52.39
62122;BME280;48108;47.532;19.084;2023-05-22T08:15:53;100335.72;;;22.28;54.57
62122;BME280;48108;47.532;19.084;2023-05-22T08:19:02;100335.72;;;22.28;50.50
62122;BME280;48108;47.532;19.084;2023-05-22T08:22:05;100334.25;;;22.42;51.11
62122;BME280;48108;47.532;19.084;2023-05-22T08:25:08;100336.91;;;22.59;51.29
62122;BME280;48108;47.532;19.084;2023-05-22T08:28:12;100342.78;;;22.46;51.89
62122;BME280;48108;47.532;19.084;2023-05-22T08:31:14;100336.75;;;22.71;51.58
62122;BME280;48108;47.532;19.084;2023-05-22T08:34:17;100331.84;;;22.73;49.59
62122;BME280;48108;47.532;19.084;2023-05-22T08:37:20;100332.66;;;23.01;49.73
62122;BME280;48108;47.532;19.084;2023-05-22T08:40:26;100324.34;;;23.23;47.07
62122;BME280;48108;47.532;19.084;2023-05-22T08:43:34;100324.44;;;23.38;49.28
62122;BME280;48108;47.532;19.084;2023-05-22T08:46:38;100328.56;;;23.73;47.22
62122;BME280;48108;47.532;19.084;2023-05-22T08:49:46;100322.69;;;24.12;48.29
62122;BME280;48108;47.532;19.084;2023-05-22T08:52:54;100324.94;;;24.30;47.29
62122;BME280;48108;47.532;19.084;2023-05-22T08:55:59;100316.91;;;24.18;47.05
62122;BME280;48108;47.532;19.084;2023-05-22T08:59:02;100318.34;;;24.26;47.45
62122;BME280;48108;47.532;19.084;2023-05-22T09:02:06;100316.94;;;24.24;46.23
62122;BME280;48108;47.532;19.084;2023-05-22T09:05:10;100326.59;;;24.36;45.98
62122;BME280;48108;47.532;19.084;2023-05-22T09:08:13;100323.56;;;24.23;47.06
62122;BME280;48108;47.532;19.084;2023-05-22T09:11:26;100328.50;;;24.20;47.45
62122;BME280;48108;47.532;19.084;2023-05-22T09:14:37;100316.66;;;24.20;47.75
62122;BME280;48108;47.532;19.084;2023-05-22T09:17:41;100314.84;;;24.56;46.53
62122;BME280;48108;47.532;19.084;2023-05-22T09:20:44;100313.09;;;24.30;46.40
62122;BME280;48108;47.532;19.084;2023-05-22T09:23:50;100318.66;;;24.40;46.55
62122;BME280;48108;47.532;19.084;2023-05-22T09:26:53;100311.87;;;24.88;45.48
62122;BME280;48108;47.532;19.084;2023-05-22T09:29:57;100313.53;;;24.89;45.60
62122;BME280;48108;47.532;19.084;2023-05-22T09:33:00;100311.87;;;25.45;47.24
62122;BME280;48108;47.532;19.084;2023-05-22T09:36:03;100308.59;;;25.22;41.71
62122;BME280;48108;47.532;19.084;2023-05-22T09:39:10;100308.03;;;25.20;42.11
62122;BME280;48108;47.532;19.084;2023-05-22T09:42:15;100304.69;;;24.98;43.79
62122;BME280;48108;47.532;19.084;2023-05-22T09:45:20;100301.41;;;24.96;43.01
62122;BME280;48108;47.532;19.084;2023-05-22T09:48:26;100303.34;;;24.85;41.77
62122;BME280;48108;47.532;19.084;2023-05-22T09:51:29;100297.28;;;25.29;40.36
62122;BME280;48108;47.532;19.084;2023-05-22T09:54:33;100303.56;;;25.60;39.91
62122;BME280;48108;47.532;19.084;2023-05-22T09:57:43;100297.25;;;25.54;40.43
62122;BME280;48108;47.532;19.084;2023-05-22T10:00:47;100293.66;;;25.44;42.18
62122;BME280;48108;47.532;19.084;2023-05-22T10:03:53;100297.25;;;25.44;41.81
62122;BME280;48108;47.532;19.084;2023-05-22T10:06:56;100300.31;;;25.32;41.61
62122;BME280;48108;47.532;19.084;2023-05-22T10:10:07;100298.06;;;25.50;40.55
62122;BME280;48108;47.532;19.084;2023-05-22T10:13:10;100301.00;;;25.94;38.80
62122;BME280;48108;47.532;19.084;2023-05-22T10:16:14;100296.94;;;25.71;39.83
62122;BME280;48108;47.532;19.084;2023-05-22T10:19:18;100295.47;;;25.94;39.80
62122;BME280;48108;47.532;19.084;2023-05-22T10:22:21;100287.75;;;26.46;38.65
62122;BME280;48108;47.532;19.084;2023-05-22T10:25:24;100287.56;;;27.16;37.08
62122;BME280;48108;47.532;19.084;2023-05-22T10:28:33;100278.94;;;26.88;39.11
62122;BME280;48108;47.532;19.084;2023-05-22T10:31:48;100267.47;;;27.34;37.07
62122;BME280;48108;47.532;19.084;2023-05-22T10:38:13;100272.31;;;27.48;36.09
62122;BME280;48108;47.532;19.084;2023-05-22T10:41:24;100260.53;;;27.61;35.75
62122;BME280;48108;47.532;19.084;2023-05-22T10:44:27;100262.75;;;27.88;36.99
62122;BME280;48108;47.532;19.084;2023-05-22T10:47:33;100251.84;;;28.16;35.84
62122;BME280;48108;47.532;19.084;2023-05-22T10:50:37;100253.69;;;28.01;33.85
62122;BME280;48108;47.532;19.084;2023-05-22T10:53:44;100252.66;;;28.16;34.90
62122;BME280;48108;47.532;19.084;2023-05-22T10:56:47;100243.63;;;28.30;35.24
62122;BME280;48108;47.532;19.084;2023-05-22T10:59:50;100240.72;;;28.91;33.19
62122;BME280;48108;47.532;19.084;2023-05-22T11:03:02;100239.69;;;29.48;34.90
62122;BME280;48108;47.532;19.084;2023-05-22T11:10:01;100227.94;;;29.70;32.26
62122;BME280;48108;47.532;19.084;2023-05-22T11:13:10;100231.81;;;29.82;30.73
62122;BME280;48108;47.532;19.084;2023-05-22T11:16:14;100222.09;;;30.21;31.38
62122;BME280;48108;47.532;19.084;2023-05-22T11:19:20;100217.69;;;30.65;29.46
62122;BME280;48108;47.532;19.084;2023-05-22T11:22:33;100210.97;;;30.80;31.25
62122;BME280;48108;47.532;19.084;2023-05-22T11:25:39;100204.81;;;31.23;30.22
62122;BME280;48108;47.532;19.084;2023-05-22T11:28:48;100203.91;;;32.81;26.73
62122;BME280;48108;47.532;19.084;2023-05-22T11:31:51;100208.03;;;34.19;25.02
62122;BME280;48108;47.532;19.084;2023-05-22T11:34:55;100209.63;;;34.29;23.78
62122;BME280;48108;47.532;19.084;2023-05-22T11:37:58;100202.25;;;35.12;24.08
62122;BME280;48108;47.532;19.084;2023-05-22T11:41:07;100201.88;;;36.80;22.41
62122;BME280;48108;47.532;19.084;2023-05-22T11:44:10;100194.28;;;36.81;22.88
62122;BME280;48108;47.532;19.084;2023-05-22T11:47:13;100181.56;;;36.71;22.64
62122;BME280;48108;47.532;19.084;2023-05-22T11:50:16;100180.47;;;36.47;24.28
62122;BME280;48108;47.532;19.084;2023-05-22T11:53:40;100186.72;;;37.13;20.09
62122;BME280;48108;47.532;19.084;2023-05-22T11:56:51;100181.94;;;37.80;21.28
62122;BME280;48108;47.532;19.084;2023-05-22T11:59:54;100180.75;;;38.36;20.20
62122;BME280;48108;47.532;19.084;2023-05-22T12:02:57;100185.22;;;39.49;18.50
62122;BME280;48108;47.532;19.084;2023-05-22T12:06:01;100183.50;;;39.94;18.78
62122;BME280;48108;47.532;19.084;2023-05-22T12:09:04;100189.37;;;38.66;19.58
62122;BME280;48108;47.532;19.084;2023-05-22T12:12:09;100179.78;;;38.09;21.65
62122;BME280;48108;47.532;19.084;2023-05-22T12:15:17;100181.34;;;37.23;21.57
62122;BME280;48108;47.532;19.084;2023-05-22T12:18:22;100174.53;;;37.40;21.14
62122;BME280;48108;47.532;19.084;2023-05-22T12:21:25;100172.97;;;36.80;20.95
62122;BME280;48108;47.532;19.084;2023-05-22T12:24:40;100172.34;;;39.48;19.13
62122;BME280;48108;47.532;19.084;2023-05-22T12:27:44;100161.78;;;39.98;19.76
62122;BME280;48108;47.532;19.084;2023-05-22T12:30:59;100160.97;;;39.67;19.15
62122;BME280;48108;47.532;19.084;2023-05-22T12:34:05;100156.16;;;39.98;18.80
62122;BME280;48108;47.532;19.084;2023-05-22T12:37:24;100153.84;;;40.07;18.91
62122;BME280;48108;47.532;19.084;2023-05-22T12:40:27;100147.69;;;39.41;19.92
62122;BME280;48108;47.532;19.084;2023-05-22T12:43:30;100152.44;;;39.37;20.84
62122;BME280;48108;47.532;19.084;2023-05-22T12:46:33;100137.72;;;40.04;20.88
62122;BME280;48108;47.532;19.084;2023-05-22T12:49:36;100139.78;;;41.22;18.12
62122;BME280;48108;47.532;19.084;2023-05-22T12:52:39;100121.44;;;39.90;19.60
62122;BME280;48108;47.532;19.084;2023-05-22T12:55:42;100121.34;;;39.83;20.04
62122;BME280;48108;47.532;19.084;2023-05-22T12:58:45;100123.50;;;40.27;18.71
62122;BME280;48108;47.532;19.084;2023-05-22T13:01:47;100115.19;;;40.78;18.54
62122;BME280;48108;47.532;19.084;2023-05-22T13:04:50;100108.97;;;41.65;18.24
62122;BME280;48108;47.532;19.084;2023-05-22T13:07:53;100097.66;;;42.89;18.40
62122;BME280;48108;47.532;19.084;2023-05-22T13:10:56;100104.03;;;43.61;15.97
62122;BME280;48108;47.532;19.084;2023-05-22T13:14:00;100096.75;;;43.71;16.25
62122;BME280;48108;47.532;19.084;2023-05-22T13:17:02;100093.44;;;42.04;17.14
62122;BME280;48108;47.532;19.084;2023-05-22T13:20:06;100092.59;;;41.93;17.49
62122;BME280;48108;47.532;19.084;2023-05-22T13:23:09;100089.81;;;41.34;17.82
62122;BME280;48108;47.532;19.084;2023-05-22T13:26:51;100088.63;;;42.19;17.01
62122;BME280;48108;47.532;19.084;2023-05-22T13:29:54;100091.25;;;41.76;17.90
62122;BME280;48108;47.532;19.084;2023-05-22T13:32:56;100085.94;;;43.15;16.53
62122;BME280;48108;47.532;19.084;2023-05-22T13:36:00;100078.59;;;42.57;17.49
62122;BME280;48108;47.532;19.084;2023-05-22T13:39:03;100086.28;;;43.32;16.06
62122;BME280;48108;47.532;19.084;2023-05-22T13:42:06;100078.19;;;42.33;16.52
62122;BME280;48108;47.532;19.084;2023-05-22T13:45:09;100078.91;;;42.23;17.25
62122;BME280;48108;47.532;19.084;2023-05-22T13:48:12;100075.63;;;41.96;17.61
62122;BME280;48108;47.532;19.084;2023-05-22T13:51:15;100072.38;;;41.94;17.83
62122;BME280;48108;47.532;19.084;2023-05-22T13:54:18;100075.00;;;42.82;16.94
62122;BME280;48108;47.532;19.084;2023-05-22T13:57:21;100071.75;;;42.97;16.53
62122;BME280;48108;47.532;19.084;2023-05-22T14:00:24;100065.91;;;41.94;17.52
62122;BME280;48108;47.532;19.084;2023-05-22T14:03:27;100076.75;;;41.15;18.17
62122;BME280;48108;47.532;19.084;2023-05-22T14:06:30;100077.78;;;39.77;19.46
62122;BME280;48108;47.532;19.084;2023-05-22T14:09:33;100067.16;;;37.63;21.32
62122;BME280;48108;47.532;19.084;2023-05-22T14:12:38;100059.94;;;35.63;23.68
62122;BME280;48108;47.532;19.084;2023-05-22T14:15:41;100056.88;;;34.45;26.27
62122;BME280;48108;47.532;19.084;2023-05-22T14:18:44;100062.50;;;33.19;26.63
62122;BME280;48108;47.532;19.084;2023-05-22T14:21:49;100058.63;;;31.66;28.87
62122;BME280;48108;47.532;19.084;2023-05-22T14:24:52;100043.81;;;31.13;30.54
62122;BME280;48108;47.532;19.084;2023-05-22T14:27:55;100049.53;;;31.16;30.24
62122;BME280;48108;47.532;19.084;2023-05-22T14:30:58;100058.16;;;30.35;31.04
62122;BME280;48108;47.532;19.084;2023-05-22T14:34:01;100053.25;;;29.87;32.06
62122;BME280;48108;47.532;19.084;2023-05-22T14:37:04;100052.19;;;29.60;32.05
62122;BME280;48108;47.532;19.084;2023-05-22T14:40:07;100055.06;;;29.55;34.26
62122;BME280;48108;47.532;19.084;2023-05-22T14:43:10;100046.59;;;29.38;34.57
62122;BME280;48108;47.532;19.084;2023-05-22T14:46:13;100051.06;;;29.11;34.62
62122;BME280;48108;47.532;19.084;2023-05-22T14:49:16;100042.41;;;29.13;32.99
62122;BME280;48108;47.532;19.084;2023-05-22T14:52:19;100047.63;;;28.87;34.64
62122;BME280;48108;47.532;19.084;2023-05-22T14:55:21;100045.00;;;28.82;35.34
62122;BME280;48108;47.532;19.084;2023-05-22T14:58:26;100050.31;;;28.78;35.45
62122;BME280;48108;47.532;19.084;2023-05-22T15:01:29;100050.09;;;28.75;35.16
62122;BME280;48108;47.532;19.084;2023-05-22T15:04:32;100043.34;;;28.67;34.64
62122;BME280;48108;47.532;19.084;2023-05-22T15:07:35;100044.97;;;28.21;35.18
62122;BME280;48108;47.532;19.084;2023-05-22T15:10:41;100043.81;;;28.09;36.15
62122;BME280;48108;47.532;19.084;2023-05-22T15:13:43;100038.09;;;28.19;35.83
62122;BME280;48108;47.532;19.084;2023-05-22T15:16:46;100039.56;;;27.97;35.54
62122;BME280;48108;47.532;19.084;2023-05-22T15:19:51;100039.22;;;27.85;36.57
62122;BME280;48108;47.532;19.084;2023-05-22T15:22:54;100040.75;;;27.72;37.19
62122;BME280;48108;47.532;19.084;2023-05-22T15:25:57;100029.38;;;27.79;35.75
62122;BME280;48108;47.532;19.084;2023-05-22T15:29:00;100035.56;;;27.71;36.63
62122;BME280;48108;47.532;19.084;2023-05-22T15:32:02;100022.25;;;27.35;36.62
62122;BME280;48108;47.532;19.084;2023-05-22T15:35:06;100027.88;;;27.06;38.34
62122;BME280;48108;47.532;19.084;2023-05-22T15:38:09;100027.78;;;27.11;38.75
62122;BME280;48108;47.532;19.084;2023-05-22T15:41:14;100031.16;;;27.08;38.83
62122;BME280;48108;47.532;19.084;2023-05-22T15:44:17;100035.16;;;26.73;39.18
62122;BME280;48108;47.532;19.084;2023-05-22T15:47:21;100024.69;;;26.94;38.60
62122;BME280;48108;47.532;19.084;2023-05-22T15:50:24;100022.00;;;26.88;39.02
62122;BME280;48108;47.532;19.084;2023-05-22T15:53:27;100018.31;;;26.74;40.01
